Time;durP1;ratioP1;P1;durP2;ratioP2;P2;SDS_P1;SDS_P2;PMS_P1;PMS_P2;Temp;Humidity;BMP_temperature;BMP_pressure;BME280_temperature;BME280_humidity;BME280_pressure;Samples;Min_cycle;Max_cycle;Signal;HPM_P1;HPM_P2
2022/06/29 00:00:31;;;;;;;2.60;1.30;;;;;;;;;;5032740;28;20053;-58
2022/06/29 00:02:57;;;;;;;5.88;1.85;;;;;;;;;;5032653;28;20523;-58
2022/06/29 00:05:24;;;;;;;2.33;1.60;;;;;;;;;;5032155;28;20037;-58
2022/06/29 00:07:50;;;;;;;2.05;1.38;;;;;;;;;;5031784;28;20034;-56
2022/06/29 00:10:17;;;;;;;1.60;1.10;;;;;;;;;;5032064;28;20029;-59
2022/06/29 00:12:44;;;;;;;1.73;1.10;;;;;;;;;;5029798;28;20033;-57
2022/06/29 00:15:10;;;;;;;1.92;1.33;;;;;;;;;;5032705;28;20056;-58
2022/06/29 00:17:36;;;;;;;4.18;1.17;;;;;;;;;;5032411;28;20068;-59
2022/06/29 00:20:04;;;;;;;3.13;1.30;;;;;;;;;;5032148;28;20026;-57
2022/06/29 00:22:30;;;;;;;1.40;1.25;;;;;;;;;;5031139;28;20022;-58
2022/06/29 00:24:57;;;;;;;4.88;1.27;;;;;;;;;;5032384;28;20463;-58
2022/06/29 00:27:24;;;;;;;2.28;1.30;;;;;;;;;;5031038;28;20056;-56
2022/06/29 00:29:50;;;;;;;2.17;1.30;;;;;;;;;;5018738;28;20033;-58
2022/06/29 00:32:16;;;;;;;2.45;1.50;;;;;;;;;;5014725;28;20029;-58
2022/06/29 00:34:42;;;;;;;2.28;1.40;;;;;;;;;;5032108;28;20034;-58
2022/06/29 00:37:08;;;;;;;1.83;1.30;;;;;;;;;;5031496;28;20018;-58
2022/06/29 00:39:34;;;;;;;1.48;1.10;;;;;;;;;;5032272;28;20177;-58
2022/06/29 00:42:00;;;;;;;3.38;1.13;;;;;;;;;;5030254;28;20132;-57
2022/06/29 00:44:26;;;;;;;2.10;1.30;;;;;;;;;;5029517;28;20374;-57
2022/06/29 00:46:54;;;;;;;2.50;1.10;;;;;;;;;;5030977;28;20104;-58
2022/06/29 00:49:21;;;;;;;3.38;1.35;;;;;;;;;;5031473;28;20037;-58
2022/06/29 00:51:48;;;;;;;2.80;1.30;;;;;;;;;;5030668;28;20164;-57
2022/06/29 00:54:25;;;;;;;2.72;1.20;;;;;;;;;;5031941;28;20516;-58
2022/06/29 00:56:51;;;;;;;3.88;1.63;;;;;;;;;;5013660;28;20112;-58
2022/06/29 00:59:23;;;;;;;2.40;1.40;;;;;;;;;;5031746;28;20017;-59
2022/06/29 01:01:49;;;;;;;2.05;1.38;;;;;;;;;;5030251;28;20049;-58
2022/06/29 01:04:15;;;;;;;2.25;1.40;;;;;;;;;;5031412;28;20116;-58
2022/06/29 01:06:41;;;;;;;3.63;1.30;;;;;;;;;;5031718;28;20025;-58
2022/06/29 01:09:07;;;;;;;1.92;1.25;;;;;;;;;;5031091;28;20032;-58
2022/06/29 01:11:34;;;;;;;1.92;1.20;;;;;;;;;;5029816;28;20153;-58
2022/06/29 01:14:00;;;;;;;4.13;1.30;;;;;;;;;;5031285;28;20025;-57
2022/06/29 01:16:26;;;;;;;2.33;1.50;;;;;;;;;;5030666;28;20029;-58
2022/06/29 01:18:52;;;;;;;2.08;1.33;;;;;;;;;;5030162;28;20109;-58
2022/06/29 01:21:22;;;;;;;1.65;1.17;;;;;;;;;;5030486;28;20123;-58
2022/06/29 01:23:48;;;;;;;1.60;1.13;;;;;;;;;;5031227;28;20496;-58
2022/06/29 01:26:14;;;;;;;2.85;1.38;;;;;;;;;;5031011;28;20037;-58
2022/06/29 01:28:46;;;;;;;4.20;1.42;;;;;;;;;;5023976;28;20045;-58
2022/06/29 01:31:18;;;;;;;3.95;1.52;;;;;;;;;;5009946;28;20577;-58
2022/06/29 01:33:46;;;;;;;1.85;1.13;;;;;;;;;;5030403;28;20124;-58
2022/06/29 01:36:12;;;;;;;3.63;1.42;;;;;;;;;;5031232;28;20484;-58
2022/06/29 01:38:39;;;;;;;2.42;1.10;;;;;;;;;;5031174;28;20025;-58
2022/06/29 01:41:06;;;;;;;3.67;1.42;;;;;;;;;;5029961;28;20030;-57
2022/06/29 01:43:32;;;;;;;1.83;1.17;;;;;;;;;;5031151;28;20026;-58
2022/06/29 01:45:58;;;;;;;2.95;1.45;;;;;;;;;;5030079;28;20733;-58
2022/06/29 01:48:24;;;;;;;3.85;1.00;;;;;;;;;;5032213;28;20535;-58
2022/06/29 01:50:50;;;;;;;2.85;1.17;;;;;;;;;;5030740;28;20033;-58
2022/06/29 01:53:16;;;;;;;2.10;1.30;;;;;;;;;;5030863;28;20033;-58
2022/06/29 01:55:44;;;;;;;3.03;1.38;;;;;;;;;;5031062;28;20472;-57
2022/06/29 01:58:10;;;;;;;1.98;1.30;;;;;;;;;;5030523;28;20369;-58
2022/06/29 02:00:36;;;;;;;1.80;1.38;;;;;;;;;;5030181;28;20566;-56
2022/06/29 02:03:02;;;;;;;2.50;1.20;;;;;;;;;;5029648;28;20112;-58
2022/06/29 02:05:28;;;;;;;3.47;1.60;;;;;;;;;;5030796;28;20030;-59
2022/06/29 02:07:54;;;;;;;2.65;1.67;;;;;;;;;;5030219;28;20033;-58
2022/06/29 02:10:20;;;;;;;2.45;1.50;;;;;;;;;;5030439;28;20736;-58
2022/06/29 02:12:46;;;;;;;3.50;1.40;;;;;;;;;;5030572;28;20029;-58
2022/06/29 02:15:12;;;;;;;1.90;1.60;;;;;;;;;;5030460;28;20129;-58
2022/06/29 02:17:38;;;;;;;1.85;1.40;;;;;;;;;;5030413;28;20175;-58
2022/06/29 02:20:04;;;;;;;2.30;1.50;;;;;;;;;;5043736;28;20460;-58
2022/06/29 02:22:30;;;;;;;2.63;1.33;;;;;;;;;;5030207;28;20057;-57
2022/06/29 02:24:56;;;;;;;1.70;1.20;;;;;;;;;;5030512;28;20519;-58
2022/06/29 02:27:22;;;;;;;1.77;1.27;;;;;;;;;;5030403;28;20201;-58
2022/06/29 02:29:48;;;;;;;1.95;1.27;;;;;;;;;;5017078;28;20038;-58
2022/06/29 02:34:59;;;;;;;2.05;1.48;;;;;;;;;;5034427;28;20562;-57
2022/06/29 02:37:25;;;;;;;2.88;1.60;;;;;;;;;;5033671;28;20029;-57
2022/06/29 02:39:50;;;;;;;5.20;1.73;;;;;;;;;;5033927;28;20526;-58
2022/06/29 02:42:16;;;;;;;2.20;1.60;;;;;;;;;;5033484;28;20037;-58
2022/06/29 02:44:43;;;;;;;6.38;1.80;;;;;;;;;;5017376;28;20021;-58
2022/06/29 02:47:09;;;;;;;2.00;1.55;;;;;;;;;;5038230;28;20189;-57
2022/06/29 02:49:36;;;;;;;1.48;1.10;;;;;;;;;;5047695;28;20115;-58
2022/06/29 02:52:02;;;;;;;3.28;1.40;;;;;;;;;;5033177;28;20032;-57
2022/06/29 02:54:28;;;;;;;3.03;1.67;;;;;;;;;;5033942;28;20522;-58
2022/06/29 02:56:54;;;;;;;2.45;1.58;;;;;;;;;;5033689;28;20033;-59
2022/06/29 02:59:21;;;;;;;1.92;1.42;;;;;;;;;;5033966;28;20048;-58
2022/06/29 03:01:47;;;;;;;3.97;1.50;;;;;;;;;;5032362;28;20033;-58
2022/06/29 03:04:13;;;;;;;3.72;1.92;;;;;;;;;;5033797;28;20406;-57
2022/06/29 03:06:39;;;;;;;2.05;1.30;;;;;;;;;;5034020;28;20033;-58
2022/06/29 03:09:05;;;;;;;2.38;1.40;;;;;;;;;;5021076;28;20478;-58
2022/06/29 03:11:32;;;;;;;2.63;1.58;;;;;;;;;;5041284;28;20133;-57
2022/06/29 03:13:58;;;;;;;5.13;1.67;;;;;;;;;;5032632;28;20029;-57
2022/06/29 03:16:24;;;;;;;2.20;1.48;;;;;;;;;;5033144;28;20111;-58
2022/06/29 03:18:50;;;;;;;1.67;1.50;;;;;;;;;;5039606;28;20396;-59
2022/06/29 03:21:17;;;;;;;5.22;1.52;;;;;;;;;;5040956;28;20468;-58
2022/06/29 03:23:44;;;;;;;3.88;1.50;;;;;;;;;;5033237;28;20029;-58
2022/06/29 03:26:10;;;;;;;3.33;1.85;;;;;;;;;;5031801;28;20053;-58
2022/06/29 03:28:36;;;;;;;3.78;1.70;;;;;;;;;;5030650;28;20420;-58
2022/06/29 03:31:02;;;;;;;2.70;1.88;;;;;;;;;;5015082;28;20025;-58
2022/06/29 03:33:28;;;;;;;4.63;1.80;;;;;;;;;;5033264;28;20136;-58
2022/06/29 03:35:54;;;;;;;3.15;1.65;;;;;;;;;;5033541;28;20064;-58
2022/06/29 03:38:20;;;;;;;2.17;1.70;;;;;;;;;;5032787;28;20156;-58
2022/06/29 03:40:46;;;;;;;4.45;1.50;;;;;;;;;;5032900;28;20025;-58
2022/06/29 03:43:12;;;;;;;3.35;1.58;;;;;;;;;;5031851;28;20076;-59
2022/06/29 03:45:38;;;;;;;1.83;1.60;;;;;;;;;;5031991;28;20091;-58
2022/06/29 03:48:05;;;;;;;4.13;1.55;;;;;;;;;;5036760;28;20496;-59
2022/06/29 03:50:31;;;;;;;3.28;1.60;;;;;;;;;;5025608;28;20029;-58
2022/06/29 03:52:57;;;;;;;1.70;1.40;;;;;;;;;;5028713;28;20033;-58
2022/06/29 03:55:23;;;;;;;3.03;1.77;;;;;;;;;;5032972;28;20080;-58
2022/06/29 03:57:49;;;;;;;2.28;1.50;;;;;;;;;;5027068;28;20061;-58
2022/06/29 04:00:15;;;;;;;3.83;1.60;;;;;;;;;;5027439;28;20022;-58
2022/06/29 04:02:42;;;;;;;2.28;1.50;;;;;;;;;;5033017;28;20049;-57
2022/06/29 04:05:08;;;;;;;1.80;1.35;;;;;;;;;;5023345;28;20078;-58
2022/06/29 04:07:35;;;;;;;1.67;1.42;;;;;;;;;;5028288;28;20021;-58
2022/06/29 04:10:01;;;;;;;2.28;1.63;;;;;;;;;;5020170;28;20092;-58
2022/06/29 04:12:31;;;;;;;3.15;1.55;;;;;;;;;;5030708;28;20029;-59
2022/06/29 04:14:57;;;;;;;2.00;1.55;;;;;;;;;;5030039;28;20113;-57
2022/06/29 04:17:23;;;;;;;2.15;1.60;;;;;;;;;;5022042;28;20191;-58
2022/06/29 04:19:51;;;;;;;4.32;2.00;;;;;;;;;;5029114;28;20500;-58
2022/06/29 04:22:17;;;;;;;1.88;1.52;;;;;;;;;;5032100;28;20369;-58
2022/06/29 04:24:43;;;;;;;4.13;1.55;;;;;;;;;;5030896;28;20045;-58
2022/06/29 04:27:09;;;;;;;3.60;1.95;;;;;;;;;;5028474;28;20456;-60
2022/06/29 04:29:35;;;;;;;1.98;1.77;;;;;;;;;;5029986;28;20029;-59
2022/06/29 04:32:01;;;;;;;4.28;1.63;;;;;;;;;;5029675;28;20021;-58
2022/06/29 04:34:27;;;;;;;2.97;1.48;;;;;;;;;;5030833;28;20037;-57
2022/06/29 04:36:53;;;;;;;2.78;1.30;;;;;;;;;;5026741;28;20073;-58
2022/06/29 04:39:19;;;;;;;2.53;1.60;;;;;;;;;;5030373;28;20022;-58
2022/06/29 04:41:46;;;;;;;2.92;1.60;;;;;;;;;;5030357;28;20029;-58
2022/06/29 04:44:12;;;;;;;1.73;1.40;;;;;;;;;;5010797;28;20080;-57
2022/06/29 04:46:37;;;;;;;2.55;1.55;;;;;;;;;;5027921;28;20061;-59
2022/06/29 04:49:04;;;;;;;2.53;1.40;;;;;;;;;;5028634;28;20033;-57
2022/06/29 04:51:31;;;;;;;1.83;1.30;;;;;;;;;;5031291;28;20030;-58
2022/06/29 04:53:57;;;;;;;2.75;1.50;;;;;;;;;;5030047;28;20392;-58
2022/06/29 04:56:24;;;;;;;3.28;1.27;;;;;;;;;;5030024;28;20041;-58
2022/06/29 04:58:53;;;;;;;3.00;1.50;;;;;;;;;;5025543;28;20029;-59
2022/06/29 05:01:19;;;;;;;1.85;1.48;;;;;;;;;;5017680;28;20037;-59
2022/06/29 05:03:45;;;;;;;1.88;1.30;;;;;;;;;;5022750;28;20029;-58
2022/06/29 05:06:11;;;;;;;2.80;1.52;;;;;;;;;;5028865;28;20026;-58
2022/06/29 05:08:37;;;;;;;2.75;1.50;;;;;;;;;;5030715;28;20480;-59
2022/06/29 05:11:03;;;;;;;3.35;1.30;;;;;;;;;;5029981;28;20029;-59
2022/06/29 05:13:29;;;;;;;1.65;1.30;;;;;;;;;;5030694;28;20033;-58
2022/06/29 05:15:55;;;;;;;1.85;1.25;;;;;;;;;;5030483;28;20062;-59
2022/06/29 05:18:21;;;;;;;3.53;1.45;;;;;;;;;;5026175;28;20054;-59
2022/06/29 05:20:47;;;;;;;1.80;1.52;;;;;;;;;;5027090;28;20026;-59
2022/06/29 05:23:13;;;;;;;1.80;1.20;;;;;;;;;;5028210;28;20099;-59
2022/06/29 05:25:39;;;;;;;4.97;1.30;;;;;;;;;;5027061;28;20073;-58
2022/06/29 05:28:06;;;;;;;3.65;1.35;;;;;;;;;;5028025;28;20033;-58
2022/06/29 05:30:32;;;;;;;3.72;1.20;;;;;;;;;;5036056;28;20427;-58
2022/06/29 05:32:58;;;;;;;1.92;1.25;;;;;;;;;;5027971;28;20432;-59
2022/06/29 05:35:24;;;;;;;1.95;1.10;;;;;;;;;;5027780;28;20033;-59
2022/06/29 05:37:50;;;;;;;3.25;1.23;;;;;;;;;;5031200;28;20028;-58
2022/06/29 05:40:16;;;;;;;2.28;1.40;;;;;;;;;;5027654;28;20095;-58
2022/06/29 05:42:42;;;;;;;2.20;1.25;;;;;;;;;;5027699;28;20025;-58
2022/06/29 05:45:08;;;;;;;1.33;1.00;;;;;;;;;;5030588;28;20400;-57
2022/06/29 05:47:34;;;;;;;3.25;1.23;;;;;;;;;;5026467;28;20164;-57
2022/06/29 05:50:00;;;;;;;3.50;1.17;;;;;;;;;;5027521;28;20629;-59
2022/06/29 05:52:27;;;;;;;2.22;1.20;;;;;;;;;;5031170;28;20087;-59
2022/06/29 05:54:53;;;;;;;5.22;1.40;;;;;;;;;;5030192;28;20025;-58
2022/06/29 05:57:19;;;;;;;2.30;0.93;;;;;;;;;;5017863;28;20534;-59
2022/06/29 05:59:46;;;;;;;1.77;1.00;;;;;;;;;;5030473;28;20054;-58
2022/06/29 06:02:12;;;;;;;3.03;1.00;;;;;;;;;;5022810;28;20032;-58
2022/06/29 06:04:38;;;;;;;2.78;0.85;;;;;;;;;;5030463;28;20025;-58
2022/06/29 06:07:04;;;;;;;4.20;1.02;;;;;;;;;;5035069;28;20029;-59
2022/06/29 06:09:32;;;;;;;2.15;1.00;;;;;;;;;;5031556;28;20428;-59
2022/06/29 06:11:58;;;;;;;3.38;0.90;;;;;;;;;;5031413;28;20037;-59
2022/06/29 06:14:24;;;;;;;1.52;0.82;;;;;;;;;;5029895;28;20029;-57
2022/06/29 06:16:50;;;;;;;3.65;0.90;;;;;;;;;;5035816;28;20029;-58
2022/06/29 06:19:16;;;;;;;2.17;0.90;;;;;;;;;;5034093;28;20076;-58
2022/06/29 06:21:42;;;;;;;2.38;0.80;;;;;;;;;;5032080;28;20076;-58
2022/06/29 06:24:08;;;;;;;2.40;0.90;;;;;;;;;;5031085;28;20109;-58
2022/06/29 06:26:34;;;;;;;2.58;0.90;;;;;;;;;;5031611;28;20573;-59
2022/06/29 06:29:01;;;;;;;2.40;0.90;;;;;;;;;;5027145;28;20033;-58
2022/06/29 06:31:27;;;;;;;2.13;0.98;;;;;;;;;;5018058;28;20030;-59
2022/06/29 06:33:53;;;;;;;0.80;0.63;;;;;;;;;;5023988;28;20166;-59
2022/06/29 06:36:19;;;;;;;0.85;0.65;;;;;;;;;;5030805;28;20018;-58
2022/06/29 06:38:45;;;;;;;3.58;0.80;;;;;;;;;;5024944;28;20497;-59
2022/06/29 06:41:25;;;;;;;2.15;0.77;;;;;;;;;;5025164;28;20022;-59
2022/06/29 06:43:55;;;;;;;2.10;0.80;;;;;;;;;;5020982;28;20064;-59
2022/06/29 06:46:22;;;;;;;1.73;0.75;;;;;;;;;;5026741;28;20096;-58
2022/06/29 06:48:50;;;;;;;1.08;0.70;;;;;;;;;;5031367;28;20037;-59
2022/06/29 06:51:17;;;;;;;1.80;0.70;;;;;;;;;;5028113;28;20378;-59
2022/06/29 06:53:43;;;;;;;7.32;1.20;;;;;;;;;;5026121;28;20108;-59
2022/06/29 06:56:09;;;;;;;1.73;0.90;;;;;;;;;;5024367;28;20105;-56
2022/06/29 06:58:38;;;;;;;2.28;0.80;;;;;;;;;;5026878;28;20036;-58
2022/06/29 07:01:07;;;;;;;4.47;1.02;;;;;;;;;;5026896;28;20097;-57
2022/06/29 07:03:36;;;;;;;2.42;0.90;;;;;;;;;;5024603;28;20029;-58
2022/06/29 07:06:04;;;;;;;3.30;0.80;;;;;;;;;;5025244;28;20503;-58
2022/06/29 07:08:31;;;;;;;1.88;0.90;;;;;;;;;;5029271;28;20045;-58
2022/06/29 07:10:57;;;;;;;1.73;0.80;;;;;;;;;;5030440;28;20061;-58
2022/06/29 07:13:23;;;;;;;2.60;1.00;;;;;;;;;;5031732;28;20022;-59
2022/06/29 07:15:49;;;;;;;2.05;1.00;;;;;;;;;;5023753;28;20076;-58
2022/06/29 07:18:15;;;;;;;3.20;0.60;;;;;;;;;;5025583;28;20025;-58
2022/06/29 07:20:41;;;;;;;1.67;0.75;;;;;;;;;;5026039;28;20377;-58
2022/06/29 07:23:07;;;;;;;4.10;1.23;;;;;;;;;;5029763;28;20033;-58
2022/06/29 07:25:33;;;;;;;3.97;0.75;;;;;;;;;;5027868;28;20033;-58
2022/06/29 07:27:59;;;;;;;1.27;0.90;;;;;;;;;;5023737;28;20384;-59
2022/06/29 07:30:25;;;;;;;1.60;0.70;;;;;;;;;;5022132;28;20111;-59
2022/06/29 07:32:51;;;;;;;2.17;0.77;;;;;;;;;;5023638;28;20018;-59
2022/06/29 07:35:17;;;;;;;2.53;0.82;;;;;;;;;;5028924;28;20120;-59
2022/06/29 07:37:43;;;;;;;4.35;0.90;;;;;;;;;;5032446;28;20079;-58
2022/06/29 07:40:09;;;;;;;2.85;0.80;;;;;;;;;;5020896;28;20025;-59
2022/06/29 07:42:36;;;;;;;2.63;0.90;;;;;;;;;;5024902;28;20026;-59
2022/06/29 07:45:02;;;;;;;4.63;1.00;;;;;;;;;;5021117;28;20033;-59
2022/06/29 07:47:28;;;;;;;3.08;0.90;;;;;;;;;;5026222;28;20033;-58
2022/06/29 07:49:55;;;;;;;1.30;0.65;;;;;;;;;;5031397;28;20033;-59
2022/06/29 07:52:21;;;;;;;3.75;1.00;;;;;;;;;;5031499;28;20036;-59
2022/06/29 07:54:47;;;;;;;0.95;0.70;;;;;;;;;;5033832;28;20041;-58
2022/06/29 07:57:13;;;;;;;4.60;1.10;;;;;;;;;;5032075;28;20095;-59
2022/06/29 07:59:39;;;;;;;2.08;1.00;;;;;;;;;;5029904;28;20128;-56
2022/06/29 08:02:05;;;;;;;3.95;0.77;;;;;;;;;;5026053;28;20084;-58
2022/06/29 08:04:31;;;;;;;3.72;0.65;;;;;;;;;;5026185;28;20065;-59
2022/06/29 08:06:57;;;;;;;5.25;1.27;;;;;;;;;;5026306;28;20033;-58
2022/06/29 08:09:23;;;;;;;2.05;0.82;;;;;;;;;;5028077;28;20040;-58
2022/06/29 08:11:51;;;;;;;4.90;0.73;;;;;;;;;;5032304;28;20098;-59
2022/06/29 08:14:17;;;;;;;2.28;0.60;;;;;;;;;;5031097;28;20107;-57
2022/06/29 08:16:43;;;;;;;1.95;0.88;;;;;;;;;;5029529;28;20028;-57
2022/06/29 08:19:09;;;;;;;2.28;0.65;;;;;;;;;;5027608;28;20459;-59
2022/06/29 08:21:35;;;;;;;2.90;0.88;;;;;;;;;;5033388;28;20029;-58
2022/06/29 08:24:01;;;;;;;0.93;0.60;;;;;;;;;;5027622;28;20029;-59
2022/06/29 08:26:27;;;;;;;2.13;0.52;;;;;;;;;;5024109;28;20045;-59
2022/06/29 08:28:53;;;;;;;2.53;1.05;;;;;;;;;;5023710;28;20108;-58
2022/06/29 08:31:19;;;;;;;3.65;0.85;;;;;;;;;;5021461;28;20036;-59
2022/06/29 08:33:46;;;;;;;2.97;1.02;;;;;;;;;;5030384;28;20041;-59
2022/06/29 08:36:12;;;;;;;2.35;0.50;;;;;;;;;;5032002;28;20032;-59
2022/06/29 08:38:38;;;;;;;1.17;0.80;;;;;;;;;;5032227;28;20037;-59
2022/06/29 08:41:05;;;;;;;1.08;0.60;;;;;;;;;;5032225;28;20112;-59
2022/06/29 08:43:31;;;;;;;2.40;0.82;;;;;;;;;;5031934;28;20136;-59
2022/06/29 08:45:57;;;;;;;1.40;0.63;;;;;;;;;;5031688;28;20468;-59
2022/06/29 08:48:23;;;;;;;2.53;0.70;;;;;;;;;;5031969;28;20030;-59
2022/06/29 08:50:53;;;;;;;5.55;0.90;;;;;;;;;;5029041;28;20605;-58
2022/06/29 08:53:19;;;;;;;4.00;0.50;;;;;;;;;;5026122;28;20030;-59
2022/06/29 08:55:46;;;;;;;4.00;0.60;;;;;;;;;;5027278;28;20025;-58
2022/06/29 08:58:32;;;;;;;2.78;0.80;;;;;;;;;;5025459;28;20036;-59
2022/06/29 09:00:58;;;;;;;1.40;0.77;;;;;;;;;;5025720;28;20047;-59
2022/06/29 09:03:24;;;;;;;4.10;1.15;;;;;;;;;;5008212;28;20022;-59
2022/06/29 09:05:54;;;;;;;2.05;0.75;;;;;;;;;;5028873;28;20029;-57
2022/06/29 09:08:20;;;;;;;2.63;0.63;;;;;;;;;;5025051;28;20032;-57
2022/06/29 09:10:47;;;;;;;1.88;0.70;;;;;;;;;;5023235;28;20029;-58
2022/06/29 09:13:18;;;;;;;1.75;0.60;;;;;;;;;;5018899;28;20038;-59
2022/06/29 09:15:44;;;;;;;2.30;0.70;;;;;;;;;;5028128;28;20109;-58
2022/06/29 09:18:22;;;;;;;2.67;0.80;;;;;;;;;;5029830;28;20472;-59
2022/06/29 09:20:52;;;;;;;3.25;0.80;;;;;;;;;;5020910;28;20032;-59
2022/06/29 09:23:19;;;;;;;2.88;0.70;;;;;;;;;;5004151;28;20108;-59
2022/06/29 09:25:45;;;;;;;1.27;0.70;;;;;;;;;;5025463;28;20037;-58
2022/06/29 09:28:21;;;;;;;3.90;0.55;;;;;;;;;;5026843;28;20392;-58
2022/06/29 09:30:47;;;;;;;1.10;0.55;;;;;;;;;;5021524;28;20026;-59
2022/06/29 09:33:13;;;;;;;4.50;0.77;;;;;;;;;;5024368;28;20025;-59
2022/06/29 09:35:40;;;;;;;1.65;0.60;;;;;;;;;;5019548;28;20014;-58
2022/06/29 09:38:19;;;;;;;0.98;0.63;;;;;;;;;;5025829;28;20025;-59
2022/06/29 09:41:03;;;;;;;2.53;0.73;;;;;;;;;;5022988;28;20025;-58
2022/06/29 09:43:30;;;;;;;7.03;0.60;;;;;;;;;;5026945;28;20021;-58
2022/06/29 09:45:56;;;;;;;0.73;0.40;;;;;;;;;;5019664;28;20033;-58
2022/06/29 09:48:23;;;;;;;1.38;0.60;;;;;;;;;;5020420;28;20033;-58
2022/06/29 09:50:50;;;;;;;4.97;0.80;;;;;;;;;;5019069;28;20041;-59
2022/06/29 09:53:18;;;;;;;1.55;0.70;;;;;;;;;;5018486;28;20165;-58
2022/06/29 09:55:46;;;;;;;0.88;0.60;;;;;;;;;;5028934;28;20034;-59
2022/06/29 09:58:13;;;;;;;0.90;0.50;;;;;;;;;;5029705;28;20083;-59
2022/06/29 10:03:23;;;;;;;1.38;0.50;;;;;;;;;;5030218;28;20516;-59
2022/06/29 10:05:59;;;;;;;1.55;0.50;;;;;;;;;;5029656;28;20039;-59
2022/06/29 10:08:27;;;;;;;2.08;0.60;;;;;;;;;;5030678;28;20044;-59
2022/06/29 10:10:57;;;;;;;1.05;0.50;;;;;;;;;;5030254;28;20037;-58
2022/06/29 10:13:41;;;;;;;1.67;0.70;;;;;;;;;;5027384;28;20029;-58
2022/06/29 10:16:29;;;;;;;2.05;0.50;;;;;;;;;;5029206;28;20481;-58
2022/06/29 10:19:13;;;;;;;3.28;0.80;;;;;;;;;;5018082;28;20030;-58
2022/06/29 10:21:39;;;;;;;1.42;0.55;;;;;;;;;;5030023;28;20029;-59
2022/06/29 10:24:05;;;;;;;1.17;0.70;;;;;;;;;;5029389;28;20041;-58
2022/06/29 10:26:35;;;;;;;1.77;0.80;;;;;;;;;;5029568;28;20055;-59
2022/06/29 10:29:07;;;;;;;1.42;0.50;;;;;;;;;;5029120;28;20765;-59
2022/06/29 10:31:51;;;;;;;2.35;0.70;;;;;;;;;;5030180;28;20025;-57
2022/06/29 10:34:33;;;;;;;1.63;0.70;;;;;;;;;;5029742;28;20124;-58
2022/06/29 10:37:05;;;;;;;4.75;0.60;;;;;;;;;;5030537;28;20018;-58
2022/06/29 10:39:49;;;;;;;9.50;0.65;;;;;;;;;;5029450;28;20485;-60
2022/06/29 10:45:06;;;;;;;1.48;0.55;;;;;;;;;;5027482;28;20092;-58
2022/06/29 10:47:33;;;;;;;1.02;0.60;;;;;;;;;;5029695;28;20029;-59
2022/06/29 10:50:14;;;;;;;2.63;0.60;;;;;;;;;;5028189;28;20037;-59
2022/06/29 10:52:41;;;;;;;1.40;0.68;;;;;;;;;;5031544;28;20069;-59
2022/06/29 10:55:07;;;;;;;1.70;0.50;;;;;;;;;;5032965;28;20033;-58
2022/06/29 10:57:34;;;;;;;1.40;0.50;;;;;;;;;;5033703;28;20095;-59
2022/06/29 11:00:04;;;;;;;1.33;0.70;;;;;;;;;;5030517;28;20233;-58
2022/06/29 11:02:29;;;;;;;3.10;0.77;;;;;;;;;;5033006;28;20033;-59
2022/06/29 11:04:55;;;;;;;1.00;0.80;;;;;;;;;;5032965;28;20111;-59
2022/06/29 11:12:52;;;;;;;3.72;0.68;;;;;;;;;;5033037;28;20063;-58
2022/06/29 11:18:12;;;;;;;2.50;0.60;;;;;;;;;;5035341;28;20607;-59
2022/06/29 11:20:38;;;;;;;0.80;0.55;;;;;;;;;;5030935;28;20022;-59
2022/06/29 11:23:10;;;;;;;1.73;0.40;;;;;;;;;;5033028;28;20435;-58
2022/06/29 11:25:36;;;;;;;3.58;0.65;;;;;;;;;;5033391;28;20102;-59
2022/06/29 11:28:02;;;;;;;4.63;0.98;;;;;;;;;;5029523;28;20104;-59
2022/06/29 11:30:28;;;;;;;1.85;0.57;;;;;;;;;;5025191;28;20508;-58
2022/06/29 11:32:54;;;;;;;7.15;0.68;;;;;;;;;;5032621;28;20437;-58
2022/06/29 11:35:21;;;;;;;1.42;0.50;;;;;;;;;;5025328;28;20048;-58
2022/06/29 11:37:48;;;;;;;2.50;0.70;;;;;;;;;;5032764;28;20040;-57
2022/06/29 11:40:14;;;;;;;1.55;0.60;;;;;;;;;;5032278;28;20481;-59
2022/06/29 11:45:35;;;;;;;2.55;0.75;;;;;;;;;;5033048;28;20239;-58
2022/06/29 11:48:10;;;;;;;1.70;0.68;;;;;;;;;;5017661;28;20037;-59
2022/06/29 11:50:41;;;;;;;3.40;0.82;;;;;;;;;;5030053;28;20545;-58
2022/06/29 11:53:07;;;;;;;7.35;1.05;;;;;;;;;;5028718;28;20507;-59
2022/06/29 11:55:44;;;;;;;8.05;0.90;;;;;;;;;;5031140;28;20784;-59
2022/06/29 11:58:11;;;;;;;2.22;0.73;;;;;;;;;;5033210;28;20030;-58
2022/06/29 12:00:39;;;;;;;3.40;0.60;;;;;;;;;;5032447;28;20021;-58
2022/06/29 12:03:05;;;;;;;1.48;0.70;;;;;;;;;;5031213;28;20041;-59
2022/06/29 12:05:31;;;;;;;2.03;0.60;;;;;;;;;;5030944;28;20393;-58
2022/06/29 12:07:57;;;;;;;1.70;0.60;;;;;;;;;;5034421;28;20101;-60
2022/06/29 12:10:22;;;;;;;1.02;0.40;;;;;;;;;;5030682;28;20029;-57
2022/06/29 12:12:49;;;;;;;2.63;0.60;;;;;;;;;;5031469;28;20541;-58
2022/06/29 12:15:16;;;;;;;2.35;0.68;;;;;;;;;;5031984;28;20030;-58
2022/06/29 12:17:43;;;;;;;3.42;0.88;;;;;;;;;;5025801;28;20021;-59
2022/06/29 12:20:09;;;;;;;3.28;0.73;;;;;;;;;;5028923;28;20029;-58
2022/06/29 12:22:35;;;;;;;5.30;0.60;;;;;;;;;;5014052;28;20120;-59
2022/06/29 12:25:01;;;;;;;2.03;0.50;;;;;;;;;;5020123;28;20480;-58
2022/06/29 12:27:27;;;;;;;4.10;0.65;;;;;;;;;;5009882;28;20041;-59
2022/06/29 12:29:53;;;;;;;2.63;0.85;;;;;;;;;;5024662;28;20060;-58
2022/06/29 12:32:19;;;;;;;1.17;0.73;;;;;;;;;;5031238;28;20633;-59
2022/06/29 12:34:45;;;;;;;2.38;0.77;;;;;;;;;;5029491;28;20179;-59
2022/06/29 12:37:11;;;;;;;3.53;0.50;;;;;;;;;;5029097;28;20048;-59
2022/06/29 12:39:37;;;;;;;5.35;0.50;;;;;;;;;;5028453;28;20014;-58
2022/06/29 12:42:03;;;;;;;1.92;0.47;;;;;;;;;;5023142;28;20112;-58
2022/06/29 12:44:30;;;;;;;1.67;0.50;;;;;;;;;;5027541;28;20025;-59
2022/06/29 12:46:56;;;;;;;1.90;0.50;;;;;;;;;;5023010;28;20068;-58
2022/06/29 12:49:22;;;;;;;1.58;0.47;;;;;;;;;;5030724;28;20036;-59
2022/06/29 12:51:48;;;;;;;2.10;0.95;;;;;;;;;;5025902;28;20095;-58
2022/06/29 12:54:14;;;;;;;2.90;0.60;;;;;;;;;;5027275;28;20484;-59
2022/06/29 12:56:40;;;;;;;1.30;0.60;;;;;;;;;;5011935;28;20017;-58
2022/06/29 12:59:06;;;;;;;2.90;0.50;;;;;;;;;;5023493;28;20034;-57
2022/06/29 13:01:32;;;;;;;2.15;0.70;;;;;;;;;;5025952;28;20076;-59
2022/06/29 13:03:58;;;;;;;0.98;0.35;;;;;;;;;;5017511;28;20029;-57
2022/06/29 13:06:24;;;;;;;1.75;0.50;;;;;;;;;;5019455;28;20037;-59
2022/06/29 13:08:50;;;;;;;1.55;0.47;;;;;;;;;;5025226;28;20085;-59
2022/06/29 13:11:16;;;;;;;4.35;0.70;;;;;;;;;;5026132;28;20393;-59
2022/06/29 13:13:42;;;;;;;1.10;0.50;;;;;;;;;;5023034;28;20091;-59
2022/06/29 13:16:08;;;;;;;3.53;0.57;;;;;;;;;;5016594;28;20097;-59
2022/06/29 13:18:36;;;;;;;2.15;0.50;;;;;;;;;;5029160;28;20049;-59
2022/06/29 13:21:02;;;;;;;1.95;0.55;;;;;;;;;;5027712;28;20128;-59
2022/06/29 13:23:28;;;;;;;4.70;0.60;;;;;;;;;;5010096;28;20053;-58
2022/06/29 13:25:54;;;;;;;0.98;0.30;;;;;;;;;;5022058;28;22026;-58
2022/06/29 13:28:20;;;;;;;1.63;0.38;;;;;;;;;;5018867;28;20040;-57
2022/06/29 13:30:46;;;;;;;1.10;0.60;;;;;;;;;;5026881;28;21572;-57
2022/06/29 13:33:13;;;;;;;1.38;0.50;;;;;;;;;;5020163;28;20050;-58
2022/06/29 13:35:39;;;;;;;2.42;0.60;;;;;;;;;;5029336;28;20334;-59
2022/06/29 13:38:05;;;;;;;2.17;0.63;;;;;;;;;;5030696;28;20040;-58
2022/06/29 13:40:32;;;;;;;2.70;0.55;;;;;;;;;;5025317;28;20018;-59
2022/06/29 13:42:58;;;;;;;2.50;0.40;;;;;;;;;;5027940;28;20393;-58
2022/06/29 13:45:24;;;;;;;1.90;0.75;;;;;;;;;;5027008;28;20045;-58
2022/06/29 13:47:50;;;;;;;1.10;0.52;;;;;;;;;;5026654;28;20543;-58
2022/06/29 13:50:16;;;;;;;1.73;0.47;;;;;;;;;;5030314;28;20029;-59
2022/06/29 13:52:42;;;;;;;1.38;0.40;;;;;;;;;;5030957;28;20037;-59
2022/06/29 13:55:08;;;;;;;1.15;0.70;;;;;;;;;;5030464;28;20401;-59
2022/06/29 13:57:34;;;;;;;2.53;0.75;;;;;;;;;;5030793;28;20108;-59
2022/06/29 14:00:00;;;;;;;1.77;0.47;;;;;;;;;;5030629;28;20033;-58
2022/06/29 14:02:26;;;;;;;2.08;0.60;;;;;;;;;;5030305;28;20469;-59
2022/06/29 14:04:51;;;;;;;0.77;0.45;;;;;;;;;;5031020;28;20033;-59
2022/06/29 14:07:18;;;;;;;2.30;0.77;;;;;;;;;;5030705;28;20022;-58
2022/06/29 14:09:44;;;;;;;1.02;0.50;;;;;;;;;;5030570;28;20103;-58
2022/06/29 14:12:10;;;;;;;1.35;0.40;;;;;;;;;;5030562;28;20118;-59
2022/06/29 14:14:36;;;;;;;1.38;0.43;;;;;;;;;;5030211;28;20033;-58
2022/06/29 14:17:02;;;;;;;3.67;0.52;;;;;;;;;;5030234;28;20029;-58
2022/06/29 14:19:32;;;;;;;0.77;0.40;;;;;;;;;;5030970;28;20026;-59
2022/06/29 14:21:58;;;;;;;3.70;0.73;;;;;;;;;;5030632;28;20469;-59
2022/06/29 14:24:24;;;;;;;2.28;0.68;;;;;;;;;;5030777;28;20056;-59
2022/06/29 14:26:50;;;;;;;1.67;0.60;;;;;;;;;;5032635;28;20056;-58
2022/06/29 14:29:16;;;;;;;2.65;0.50;;;;;;;;;;5023324;28;20030;-58
2022/06/29 14:31:43;;;;;;;2.58;0.55;;;;;;;;;;5033642;28;20028;-59
2022/06/29 14:34:08;;;;;;;2.33;0.40;;;;;;;;;;5034908;28;20452;-58
2022/06/29 14:36:35;;;;;;;0.93;0.40;;;;;;;;;;5034740;28;20057;-58
2022/06/29 14:39:01;;;;;;;1.80;0.25;;;;;;;;;;5034720;28;20060;-59
2022/06/29 14:41:27;;;;;;;0.82;0.20;;;;;;;;;;5033729;28;20049;-59
2022/06/29 14:43:53;;;;;;;1.10;0.43;;;;;;;;;;5033520;28;20029;-59
2022/06/29 14:46:19;;;;;;;1.65;0.30;;;;;;;;;;5033948;28;20032;-58
2022/06/29 14:48:45;;;;;;;3.47;0.63;;;;;;;;;;5034121;28;20488;-59
2022/06/29 14:51:12;;;;;;;1.00;0.40;;;;;;;;;;5035347;28;20112;-58
2022/06/29 14:53:38;;;;;;;2.15;0.80;;;;;;;;;;5034457;28;20032;-59
2022/06/29 14:56:04;;;;;;;2.55;0.57;;;;;;;;;;5034239;28;20043;-59
2022/06/29 14:58:31;;;;;;;1.23;0.55;;;;;;;;;;5033918;28;20100;-58
2022/06/29 15:00:57;;;;;;;2.15;0.68;;;;;;;;;;5033335;28;20029;-57